createdAt,value
2017-11-12T00:00:31.178Z,2.50
2017-11-12T00:02:58.709Z,2.50
2017-11-12T00:05:26.263Z,2.50
2017-11-12T00:07:53.788Z,2.50
2017-11-12T00:10:21.335Z,2.50
2017-11-12T00:12:48.869Z,2.50
2017-11-12T00:15:17.168Z,2.50
2017-11-12T00:17:44.740Z,2.40
2017-11-12T00:20:12.280Z,2.40
2017-11-12T00:22:39.833Z,2.40
2017-11-12T00:25:08.131Z,2.40
2017-11-12T00:27:35.684Z,2.40
2017-11-12T00:30:03.211Z,2.40
2017-11-12T00:32:30.765Z,2.30
2017-11-12T00:34:58.305Z,2.20
2017-11-12T00:37:25.857Z,2.10
2017-11-12T00:39:53.396Z,2.10
2017-11-12T00:42:20.949Z,2.10
2017-11-12T00:44:48.481Z,2.10
2017-11-12T00:47:16.824Z,2.20
2017-11-12T00:49:44.356Z,2.20
2017-11-12T00:52:11.893Z,2.20
2017-11-12T00:54:40.209Z,2.30
2017-11-12T00:57:07.742Z,2.30
2017-11-12T00:59:35.296Z,2.30
2017-11-12T01:02:03.596Z,2.20
2017-11-12T01:04:31.140Z,2.20
2017-11-12T01:06:58.709Z,2.20
2017-11-12T01:09:26.259Z,2.10
2017-11-12T01:11:54.551Z,2.00
2017-11-12T01:14:22.099Z,2.00
2017-11-12T01:16:50.386Z,2.00
2017-11-12T01:19:17.932Z,2.00
2017-11-12T01:21:46.224Z,2.10
2017-11-12T01:24:13.802Z,2.00
2017-11-12T01:26:41.326Z,2.10
2017-11-12T01:29:09.629Z,2.10
2017-11-12T01:31:37.177Z,2.10
2017-11-12T01:34:04.712Z,2.10
2017-11-12T01:36:32.266Z,2.10
2017-11-12T01:38:59.793Z,2.00
2017-11-12T01:41:27.340Z,1.90
2017-11-12T01:43:54.869Z,1.90
2017-11-12T01:46:23.184Z,1.90
2017-11-12T01:48:50.725Z,1.90
2017-11-12T01:51:18.269Z,1.90
2017-11-12T01:53:46.564Z,1.90
2017-11-12T01:56:14.111Z,1.80
2017-11-12T01:58:42.404Z,1.80
2017-11-12T02:01:09.924Z,1.80
2017-11-12T02:03:37.464Z,1.80
2017-11-12T02:06:04.988Z,1.80
2017-11-12T02:08:32.533Z,1.80
2017-11-12T02:11:00.833Z,1.80
2017-11-12T02:13:28.378Z,1.70
2017-11-12T02:15:56.672Z,1.70
2017-11-12T02:18:24.222Z,1.70
2017-11-12T02:20:51.759Z,1.70
2017-11-12T02:23:20.068Z,1.60
2017-11-12T02:25:47.586Z,1.60
2017-11-12T02:28:15.153Z,1.60
2017-11-12T02:30:42.680Z,1.60
2017-11-12T02:33:10.209Z,1.50
2017-11-12T02:35:37.749Z,1.40
2017-11-12T02:38:06.045Z,1.30
2017-11-12T02:40:33.596Z,1.30
2017-11-12T02:43:01.883Z,1.30
2017-11-12T02:45:29.425Z,1.30
2017-11-12T02:47:57.717Z,1.30
2017-11-12T02:50:25.264Z,1.30
2017-11-12T02:52:53.564Z,1.30
2017-11-12T02:55:21.113Z,1.30
2017-11-12T02:57:48.648Z,1.30
2017-11-12T03:00:16.195Z,1.30
2017-11-12T03:02:43.765Z,1.30
2017-11-12T03:05:11.312Z,1.30
2017-11-12T03:07:38.852Z,1.30
2017-11-12T03:10:06.417Z,1.30
2017-11-12T03:12:33.952Z,1.20
2017-11-12T03:15:01.481Z,1.20
2017-11-12T03:17:29.023Z,1.20
2017-11-12T03:19:56.554Z,1.20
2017-11-12T03:22:24.122Z,1.30
2017-11-12T03:24:51.642Z,1.30
2017-11-12T03:27:19.947Z,1.40
2017-11-12T03:29:47.483Z,1.40
2017-11-12T03:32:15.796Z,1.40
2017-11-12T03:34:43.329Z,1.40
2017-11-12T03:37:10.872Z,1.40
2017-11-12T03:39:38.397Z,1.40
2017-11-12T03:42:05.947Z,1.40
2017-11-12T03:44:33.472Z,1.30
2017-11-12T03:47:01.016Z,1.30
2017-11-12T03:49:29.326Z,1.30
2017-11-12T03:51:56.871Z,1.20
2017-11-12T03:54:24.395Z,1.20
2017-11-12T03:56:51.965Z,1.20
2017-11-12T03:59:20.267Z,1.20
2017-11-12T04:01:47.796Z,1.20
2017-11-12T04:04:16.119Z,1.10
2017-11-12T04:06:43.644Z,1.10
2017-11-12T04:09:11.964Z,1.10
2017-11-12T04:11:39.496Z,1.10
2017-11-12T04:14:07.805Z,1.20
2017-11-12T04:16:35.341Z,1.20
2017-11-12T04:19:02.900Z,1.20
2017-11-12T04:21:30.418Z,1.20
2017-11-12T04:23:57.983Z,1.20
2017-11-12T04:26:25.517Z,1.20
2017-11-12T04:28:53.048Z,1.30
2017-11-12T04:31:20.587Z,1.30
2017-11-12T04:33:48.878Z,1.20
2017-11-12T04:36:16.415Z,1.20
2017-11-12T04:38:43.945Z,1.20
2017-11-12T04:41:11.488Z,1.10
2017-11-12T04:43:39.015Z,1.10
2017-11-12T04:46:07.333Z,1.20
2017-11-12T04:48:34.855Z,1.20
2017-11-12T04:51:02.408Z,1.20
2017-11-12T04:53:30.695Z,1.10
2017-11-12T04:55:58.243Z,1.10
2017-11-12T04:58:26.538Z,1.10
2017-11-12T05:00:54.061Z,1.10
2017-11-12T05:03:21.607Z,1.10
2017-11-12T05:05:49.120Z,1.20
2017-11-12T05:08:16.659Z,1.30
2017-11-12T05:10:44.949Z,1.30
2017-11-12T05:13:12.496Z,1.30
2017-11-12T05:15:40.775Z,1.30
2017-11-12T05:18:09.080Z,1.30
2017-11-12T05:20:36.609Z,1.30
2017-11-12T05:23:04.921Z,1.30
2017-11-12T05:25:32.439Z,1.30
2017-11-12T05:28:00.746Z,1.40
2017-11-12T05:30:28.267Z,1.30
2017-11-12T05:32:55.804Z,1.40
2017-11-12T05:35:23.323Z,1.40
2017-11-12T05:37:50.864Z,1.30
2017-11-12T05:40:19.155Z,1.40
2017-11-12T05:42:46.706Z,1.30
2017-11-12T05:45:14.994Z,1.30
2017-11-12T05:47:43.303Z,1.30
2017-11-12T05:50:10.830Z,1.30
2017-11-12T05:52:39.144Z,1.30
2017-11-12T05:55:06.664Z,1.30
2017-11-12T05:57:34.968Z,1.30
2017-11-12T06:00:02.487Z,1.30
2017-11-12T06:02:30.032Z,1.20
2017-11-12T06:04:57.556Z,1.30
2017-11-12T06:07:25.096Z,1.20
2017-11-12T06:09:52.625Z,1.30
2017-11-12T06:12:20.934Z,1.30
2017-11-12T06:14:48.456Z,1.30
2017-11-12T06:17:16.012Z,1.30
2017-11-12T06:19:43.547Z,1.30
2017-11-12T06:22:11.109Z,1.30
2017-11-12T06:24:38.636Z,1.30
2017-11-12T06:27:06.179Z,1.30
2017-11-12T06:29:33.719Z,1.40
2017-11-12T06:32:02.031Z,1.30
2017-11-12T06:34:29.560Z,1.30
2017-11-12T06:36:57.847Z,1.40
2017-11-12T06:39:26.150Z,1.40
2017-11-12T06:41:53.681Z,1.40
2017-11-12T06:44:21.987Z,1.40
2017-11-12T06:46:49.521Z,1.40
2017-11-12T06:49:17.832Z,1.40
2017-11-12T06:51:45.361Z,1.40
2017-11-12T06:54:12.905Z,1.40
2017-11-12T06:56:40.427Z,1.40
2017-11-12T06:59:07.973Z,1.40
2017-11-12T07:01:35.532Z,1.40
2017-11-12T07:04:03.083Z,1.40
2017-11-12T07:06:30.612Z,1.40
2017-11-12T07:08:58.926Z,1.50
2017-11-12T07:11:26.453Z,1.50
2017-11-12T07:13:54.562Z,1.50
2017-11-12T07:16:22.091Z,1.60
2017-11-12T07:18:50.443Z,1.70
2017-11-12T07:21:18.046Z,1.70
2017-11-12T07:23:45.592Z,1.70
2017-11-12T07:26:13.880Z,1.90
2017-11-12T07:28:42.194Z,2.00
2017-11-12T07:31:09.721Z,1.90
2017-11-12T07:33:37.272Z,2.00
2017-11-12T07:36:05.570Z,2.10
2017-11-12T07:38:33.120Z,2.10
2017-11-12T07:41:00.647Z,2.20
2017-11-12T07:43:28.190Z,2.20
2017-11-12T07:45:55.719Z,2.30
2017-11-12T07:48:23.261Z,2.30
2017-11-12T07:50:50.783Z,2.40
2017-11-12T07:53:18.327Z,2.40
2017-11-12T07:55:45.848Z,2.50
2017-11-12T07:58:13.392Z,2.50
2017-11-12T08:00:41.684Z,2.70
2017-11-12T08:03:09.228Z,2.60
2017-11-12T08:05:37.526Z,2.80
2017-11-12T08:08:05.082Z,2.80
2017-11-12T08:10:32.620Z,2.90
2017-11-12T08:13:00.961Z,3.00
2017-11-12T08:15:28.491Z,3.00
2017-11-12T08:17:56.036Z,3.10
2017-11-12T08:20:24.325Z,3.20
2017-11-12T08:22:51.871Z,3.20
2017-11-12T08:25:20.180Z,3.30
2017-11-12T08:27:47.724Z,3.30
2017-11-12T08:30:15.251Z,3.30
2017-11-12T08:32:42.792Z,3.30
2017-11-12T08:35:10.316Z,3.30
2017-11-12T08:37:37.854Z,3.30
2017-11-12T08:40:06.143Z,3.50
2017-11-12T08:42:34.454Z,3.50
2017-11-12T08:45:01.999Z,3.50
2017-11-12T08:47:29.522Z,3.60
2017-11-12T08:49:57.067Z,3.70
2017-11-12T08:52:24.611Z,3.70
2017-11-12T08:54:52.170Z,3.80
2017-11-12T08:57:19.692Z,3.80
2017-11-12T08:59:48.004Z,3.70
2017-11-12T09:02:15.533Z,3.70
2017-11-12T09:04:43.841Z,3.70
2017-11-12T09:07:11.367Z,3.70
2017-11-12T09:09:39.688Z,3.70
2017-11-12T09:12:07.211Z,3.70
2017-11-12T09:14:35.555Z,3.70
2017-11-12T09:17:03.083Z,3.70
2017-11-12T09:19:30.635Z,3.70
2017-11-12T09:21:58.163Z,3.70
2017-11-12T09:24:26.477Z,3.70
2017-11-12T09:26:53.996Z,3.70
2017-11-12T09:29:22.315Z,3.90
2017-11-12T09:31:49.844Z,3.90
2017-11-12T09:34:18.151Z,4.00
2017-11-12T09:36:45.675Z,4.00
2017-11-12T09:39:13.984Z,4.00
2017-11-12T09:41:41.503Z,3.90
2017-11-12T09:44:09.811Z,3.90
2017-11-12T09:46:37.335Z,3.90
2017-11-12T09:49:05.651Z,3.80
2017-11-12T09:51:33.181Z,3.80
2017-11-12T09:54:01.500Z,3.80
2017-11-12T09:56:29.016Z,3.80
2017-11-12T09:58:56.554Z,3.80
2017-11-12T10:01:24.080Z,3.90
2017-11-12T10:03:51.640Z,3.90
2017-11-12T10:06:19.159Z,3.90
2017-11-12T10:08:46.680Z,3.90
2017-11-12T10:11:14.232Z,3.90
2017-11-12T10:13:41.773Z,3.90
2017-11-12T10:16:09.324Z,3.90
2017-11-12T10:18:36.859Z,3.90
2017-11-12T10:21:04.398Z,3.90
2017-11-12T10:23:31.920Z,3.80
2017-11-12T10:25:59.465Z,3.80
2017-11-12T10:28:27.749Z,3.80
2017-11-12T10:30:56.061Z,3.70
2017-11-12T10:33:23.584Z,3.70
2017-11-12T10:35:52.723Z,3.80
2017-11-12T10:38:20.251Z,3.80
2017-11-12T10:40:48.551Z,3.80
2017-11-12T10:43:16.073Z,3.80
2017-11-12T10:45:44.363Z,3.80
2017-11-12T10:48:12.674Z,3.80
2017-11-12T10:50:40.223Z,3.80
2017-11-12T10:53:07.772Z,3.80
2017-11-12T10:55:36.061Z,3.80
2017-11-12T10:58:03.613Z,3.80
2017-11-12T11:00:31.137Z,3.80
2017-11-12T11:02:58.687Z,3.70
2017-11-12T11:05:26.207Z,3.70
2017-11-12T11:07:53.744Z,3.70
2017-11-12T11:10:22.032Z,3.70
2017-11-12T11:12:50.336Z,3.70
2017-11-12T11:15:17.856Z,3.70
2017-11-12T11:17:46.167Z,3.60
2017-11-12T11:20:13.680Z,3.50
2017-11-12T11:22:41.223Z,3.50
2017-11-12T11:25:08.763Z,3.60
2017-11-12T11:27:36.284Z,3.60
2017-11-12T11:30:04.595Z,3.50
2017-11-12T11:32:32.119Z,3.40
2017-11-12T11:35:00.434Z,3.40
2017-11-12T11:37:27.966Z,3.40
2017-11-12T11:39:55.531Z,3.40
2017-11-12T11:42:23.067Z,3.40
2017-11-12T11:44:51.380Z,3.20
2017-11-12T11:47:18.912Z,3.20
2017-11-12T11:49:47.236Z,3.00
2017-11-12T11:52:14.756Z,3.00
2017-11-12T11:54:43.068Z,2.80
2017-11-12T11:57:10.599Z,2.80
2017-11-12T11:59:38.897Z,2.90
2017-11-12T12:02:06.430Z,2.80
2017-11-12T12:04:34.768Z,2.90
2017-11-12T12:07:02.295Z,2.90
2017-11-12T12:09:29.857Z,2.90
2017-11-12T12:11:57.399Z,2.90
2017-11-12T12:14:25.691Z,3.00
2017-11-12T12:16:53.231Z,2.90
2017-11-12T12:19:21.524Z,2.90
2017-11-12T12:21:49.068Z,2.90
2017-11-12T12:24:17.371Z,2.90
2017-11-12T12:26:44.934Z,2.90
2017-11-12T12:29:12.466Z,2.90
2017-11-12T12:31:40.776Z,2.80
2017-11-12T12:34:08.316Z,2.80
2017-11-12T12:36:35.861Z,2.80
2017-11-12T12:39:04.161Z,2.70
2017-11-12T12:41:31.715Z,2.70
2017-11-12T12:44:00.003Z,2.60
2017-11-12T12:46:27.553Z,2.60
2017-11-12T12:48:55.080Z,2.50
2017-11-12T12:51:22.606Z,2.50
2017-11-12T12:53:50.142Z,2.40
2017-11-12T12:56:17.669Z,2.40
2017-11-12T12:58:45.212Z,2.30
2017-11-12T13:01:12.732Z,2.30
2017-11-12T13:03:40.284Z,2.30
2017-11-12T13:06:07.809Z,2.20
2017-11-12T13:08:35.356Z,2.20
2017-11-12T13:11:02.892Z,2.10
2017-11-12T13:13:30.443Z,2.10
2017-11-12T13:15:57.965Z,2.10
2017-11-12T13:18:26.275Z,2.10
2017-11-12T13:20:53.793Z,2.00
2017-11-12T13:23:21.355Z,2.10
2017-11-12T13:25:48.879Z,2.00
2017-11-12T13:28:16.396Z,2.00
2017-11-12T13:30:43.944Z,2.00
2017-11-12T13:33:12.247Z,1.90
2017-11-12T13:35:39.786Z,1.90
2017-11-12T13:38:08.085Z,1.80
2017-11-12T13:40:35.631Z,1.80
2017-11-12T13:43:03.152Z,1.80
2017-11-12T13:45:30.700Z,1.80
2017-11-12T13:47:58.230Z,1.80
2017-11-12T13:50:25.777Z,1.80
2017-11-12T13:52:53.303Z,1.80
2017-11-12T13:55:20.863Z,1.80
2017-11-12T13:57:48.391Z,1.80
2017-11-12T14:00:15.908Z,1.80
2017-11-12T14:02:43.452Z,1.90
2017-11-12T14:05:11.748Z,1.90
2017-11-12T14:07:39.290Z,1.90
2017-11-12T14:10:07.585Z,2.00
2017-11-12T14:12:35.132Z,2.00
2017-11-12T14:15:02.667Z,2.00
2017-11-12T14:17:30.215Z,2.00
2017-11-12T14:19:57.744Z,2.00
2017-11-12T14:22:25.311Z,2.00
2017-11-12T14:24:52.841Z,2.10
2017-11-12T14:27:21.132Z,2.00
2017-11-12T14:29:48.681Z,2.00
2017-11-12T14:32:16.966Z,2.00
2017-11-12T14:34:44.514Z,1.90
2017-11-12T14:37:12.802Z,2.00
2017-11-12T14:39:41.104Z,2.10
2017-11-12T14:42:08.622Z,2.10
2017-11-12T14:44:36.163Z,2.10
2017-11-12T14:47:03.682Z,2.20
2017-11-12T14:49:31.232Z,2.20
2017-11-12T14:51:58.765Z,2.20
2017-11-12T14:54:26.292Z,2.30
2017-11-12T14:56:53.830Z,2.20
2017-11-12T14:59:21.347Z,2.20
2017-11-12T15:01:49.659Z,2.20
2017-11-12T15:04:17.181Z,2.20
2017-11-12T15:06:44.721Z,2.30
2017-11-12T15:09:12.247Z,2.30
2017-11-12T15:11:39.788Z,2.30
2017-11-12T15:14:07.319Z,2.20
2017-11-12T15:16:34.882Z,2.20
2017-11-12T15:19:02.419Z,2.10
2017-11-12T15:21:29.957Z,2.10
2017-11-12T15:23:57.496Z,2.20
2017-11-12T15:26:25.025Z,2.20
2017-11-12T15:28:52.572Z,2.10
2017-11-12T15:31:20.101Z,2.10
2017-11-12T15:33:47.648Z,2.10
2017-11-12T15:36:15.175Z,2.00
2017-11-12T15:38:43.488Z,2.10
2017-11-12T15:41:11.011Z,2.10
2017-11-12T15:43:38.559Z,2.10
2017-11-12T15:46:06.176Z,2.10
2017-11-12T15:48:33.791Z,2.10
2017-11-12T15:51:01.319Z,2.10
2017-11-12T15:53:28.842Z,2.10
2017-11-12T15:55:56.384Z,2.20
2017-11-12T15:58:24.685Z,2.20
2017-11-12T16:00:52.227Z,2.20
2017-11-12T16:03:20.515Z,2.10
2017-11-12T16:05:48.065Z,2.10
2017-11-12T16:08:16.352Z,2.00
2017-11-12T16:10:43.904Z,2.00
2017-11-12T16:13:12.196Z,2.00
2017-11-12T16:15:39.738Z,1.90
2017-11-12T16:18:08.036Z,2.00
2017-11-12T16:20:35.583Z,1.90
2017-11-12T16:23:03.877Z,1.90
2017-11-12T16:25:31.441Z,1.90
2017-11-12T16:27:59.797Z,2.00
2017-11-12T16:30:28.087Z,2.10
2017-11-12T16:32:56.400Z,2.10
2017-11-12T16:35:23.924Z,2.10
2017-11-12T16:37:52.240Z,2.20
2017-11-12T16:40:19.773Z,2.20
2017-11-12T16:42:47.320Z,2.20
2017-11-12T16:45:14.903Z,2.20
2017-11-12T16:47:42.447Z,2.20
2017-11-12T16:50:10.739Z,2.20
2017-11-12T16:52:38.279Z,2.20
2017-11-12T16:55:06.572Z,2.30
2017-11-12T16:57:34.124Z,2.30
2017-11-12T17:00:01.666Z,2.30
2017-11-12T17:02:29.955Z,2.30
2017-11-12T17:04:58.265Z,2.30
2017-11-12T17:07:25.796Z,2.30
2017-11-12T17:09:54.102Z,2.30
2017-11-12T17:12:21.634Z,2.30
2017-11-12T17:14:49.955Z,2.30
2017-11-12T17:17:17.493Z,2.30
2017-11-12T17:19:45.045Z,2.30
2017-11-12T17:22:13.327Z,2.30
2017-11-12T17:24:40.901Z,2.30
2017-11-12T17:27:08.430Z,2.30
2017-11-12T17:29:36.730Z,2.30
2017-11-12T17:32:04.280Z,2.30
2017-11-12T17:34:31.811Z,2.30
2017-11-12T17:36:59.350Z,2.20
2017-11-12T17:39:26.877Z,2.20
2017-11-12T17:41:54.421Z,2.20
2017-11-12T17:44:22.707Z,2.20
2017-11-12T17:46:51.271Z,2.20
2017-11-12T17:49:19.575Z,2.20
2017-11-12T17:51:52.471Z,2.20
2017-11-12T17:54:27.493Z,2.20
2017-11-12T17:56:58.729Z,2.20
2017-11-12T17:59:27.025Z,2.20
2017-11-12T18:01:54.548Z,2.20
2017-11-12T18:04:22.098Z,2.20
2017-11-12T18:06:49.628Z,2.20
2017-11-12T18:09:17.180Z,2.20
2017-11-12T18:11:44.699Z,2.20
2017-11-12T18:14:12.244Z,2.20
2017-11-12T18:16:39.773Z,2.20
2017-11-12T18:19:07.316Z,2.20
2017-11-12T18:21:34.836Z,2.30
2017-11-12T18:24:02.376Z,2.20
2017-11-12T18:26:29.913Z,2.20
2017-11-12T18:28:57.472Z,2.20
2017-11-12T18:31:24.992Z,2.20
2017-11-12T18:33:53.623Z,2.20
2017-11-12T18:36:21.204Z,2.20
2017-11-12T18:38:50.692Z,2.10
2017-11-12T18:41:31.389Z,2.10
2017-11-12T18:44:01.288Z,2.10
2017-11-12T18:46:29.437Z,2.10
2017-11-12T18:48:56.973Z,2.10
2017-11-12T18:51:25.288Z,2.10
2017-11-12T18:53:52.832Z,2.10
2017-11-12T18:59:25.032Z,2.10
2017-11-12T19:02:00.137Z,2.00
2017-11-12T19:04:34.957Z,2.00
2017-11-12T19:07:19.174Z,2.00
2017-11-12T19:09:46.700Z,2.00
2017-11-12T19:12:15.687Z,2.00
2017-11-12T19:14:43.971Z,2.00
2017-11-12T19:17:12.774Z,2.00
2017-11-12T19:19:43.146Z,2.00
2017-11-12T19:22:13.127Z,2.00
2017-11-12T19:24:42.445Z,2.00
2017-11-12T19:27:26.659Z,2.00
2017-11-12T19:29:54.947Z,2.00
2017-11-12T19:32:22.495Z,2.00
2017-11-12T19:34:50.786Z,2.00
2017-11-12T19:37:18.335Z,2.00
2017-11-12T19:39:46.624Z,2.00
2017-11-12T19:42:14.173Z,2.00
2017-11-12T19:44:42.459Z,2.00
2017-11-12T19:47:10.765Z,2.00
2017-11-12T19:49:38.292Z,1.90
2017-11-12T19:52:06.624Z,2.00
2017-11-12T19:54:34.152Z,2.00
2017-11-12T19:57:01.733Z,2.00
2017-11-12T19:59:29.281Z,2.00
2017-11-12T20:01:56.810Z,2.00
2017-11-12T20:04:24.359Z,1.90
2017-11-12T20:06:51.884Z,1.90
2017-11-12T20:09:19.428Z,2.00
2017-11-12T20:11:46.957Z,2.00
2017-11-12T20:14:14.502Z,2.00
2017-11-12T20:16:42.023Z,2.00
2017-11-12T20:19:09.578Z,1.90
2017-11-12T20:21:37.104Z,1.90
2017-11-12T20:24:05.424Z,1.90
2017-11-12T20:26:32.953Z,1.90
2017-11-12T20:29:01.252Z,1.90
2017-11-12T20:31:28.797Z,1.90
2017-11-12T20:33:57.092Z,2.00
2017-11-12T20:36:24.644Z,1.90
2017-11-12T20:38:52.176Z,1.90
2017-11-12T20:41:19.720Z,2.00
2017-11-12T20:43:47.251Z,2.00
2017-11-12T20:46:14.797Z,1.90
2017-11-12T20:48:42.319Z,2.00
2017-11-12T20:51:09.887Z,2.00
2017-11-12T20:53:38.177Z,2.00
2017-11-12T20:56:06.462Z,2.10
2017-11-12T20:58:34.776Z,2.10
2017-11-12T21:01:02.304Z,2.10
2017-11-12T21:03:30.304Z,2.10
2017-11-12T21:06:00.513Z,2.10
2017-11-12T21:08:28.059Z,2.20
2017-11-12T21:10:55.585Z,2.20
2017-11-12T21:13:23.141Z,2.20
2017-11-12T21:15:50.664Z,2.20
2017-11-12T21:18:18.235Z,2.30
2017-11-12T21:21:01.487Z,2.30
2017-11-12T21:23:29.629Z,2.30
2017-11-12T21:25:57.156Z,2.30
2017-11-12T21:28:25.447Z,2.40
2017-11-12T21:30:54.363Z,2.40
2017-11-12T21:36:22.229Z,2.40
2017-11-12T21:38:50.527Z,2.40
2017-11-12T21:41:18.080Z,2.40
2017-11-12T21:43:45.603Z,2.40
2017-11-12T21:46:13.152Z,2.40
2017-11-12T21:48:40.679Z,2.40
2017-11-12T21:51:08.236Z,2.40
2017-11-12T21:53:35.768Z,2.40
2017-11-12T21:56:04.091Z,2.40
2017-11-12T21:58:31.623Z,2.30
2017-11-12T22:00:59.171Z,2.30
2017-11-12T22:03:27.472Z,2.40
2017-11-12T22:05:55.037Z,2.40
2017-11-12T22:08:22.562Z,2.50
2017-11-12T22:10:50.865Z,2.50
2017-11-12T22:13:18.411Z,2.50
2017-11-12T22:15:46.721Z,2.60
2017-11-12T22:18:14.263Z,2.50
2017-11-12T22:20:41.782Z,2.60
2017-11-12T22:23:09.336Z,2.60
2017-11-12T22:25:36.863Z,2.70
2017-11-12T22:28:04.402Z,2.70
2017-11-12T22:30:31.945Z,2.70
2017-11-12T22:33:00.322Z,2.70
2017-11-12T22:35:28.622Z,2.70
2017-11-12T22:37:56.194Z,2.60
2017-11-12T22:40:23.729Z,2.70
2017-11-12T22:42:52.028Z,2.70
2017-11-12T22:45:19.581Z,2.70
2017-11-12T22:47:47.121Z,2.70
2017-11-12T22:50:14.668Z,2.70
2017-11-12T22:52:42.183Z,2.70
2017-11-12T22:55:09.736Z,2.70
2017-11-12T22:57:37.269Z,2.70
2017-11-12T23:00:05.587Z,2.80
2017-11-12T23:02:33.112Z,2.80
2017-11-12T23:05:01.422Z,2.80
2017-11-12T23:07:28.936Z,2.80
2017-11-12T23:09:56.485Z,2.90
2017-11-12T23:12:24.019Z,2.90
2017-11-12T23:14:51.574Z,2.90
2017-11-12T23:17:19.102Z,2.80
2017-11-12T23:19:47.420Z,2.90
2017-11-12T23:22:14.960Z,2.90
2017-11-12T23:24:42.507Z,2.90
2017-11-12T23:27:10.809Z,2.90
2017-11-12T23:29:38.402Z,2.90
2017-11-12T23:32:05.936Z,3.00
2017-11-12T23:34:33.484Z,3.00
2017-11-12T23:37:01.016Z,3.00
2017-11-12T23:39:29.332Z,3.10
2017-11-12T23:41:56.859Z,3.10
2017-11-12T23:44:25.175Z,3.10
2017-11-12T23:46:52.699Z,3.00
2017-11-12T23:49:21.020Z,3.00
2017-11-12T23:51:48.547Z,3.00
2017-11-12T23:54:16.851Z,3.00
2017-11-12T23:56:44.382Z,3.00
2017-11-12T23:59:12.704Z,3.10
